createdAt,value
2019-04-04T00:02:26.569Z,99348.86
2019-04-04T00:05:15.389Z,99351.78
2019-04-04T00:08:04.314Z,99355.20
2019-04-04T00:10:53.128Z,99357.95
2019-04-04T00:13:42.592Z,99355.36
2019-04-04T00:16:32.512Z,99374.23
2019-04-04T00:19:21.424Z,99378.67
2019-04-04T00:22:10.247Z,99358.39
2019-04-04T00:24:59.116Z,99343.73
2019-04-04T00:27:47.929Z,99327.32
2019-04-04T00:30:36.772Z,99335.05
2019-04-04T00:33:26.265Z,99338.91
2019-04-04T00:36:16.180Z,99341.59
2019-04-04T00:39:25.887Z,99326.48
2019-04-04T00:42:16.723Z,99315.57
2019-04-04T00:45:28.727Z,99332.86
2019-04-04T00:48:16.725Z,99347.89
2019-04-04T00:51:07.735Z,99349.66
2019-04-04T00:53:56.193Z,99350.16
2019-04-04T00:56:45.029Z,99349.12
2019-04-04T00:59:33.885Z,99350.52
2019-04-04T01:02:15.990Z,99339.88
2019-04-04T01:05:25.707Z,99337.63
2019-04-04T01:08:14.537Z,99337.56
2019-04-04T01:11:03.349Z,99338.77
2019-04-04T01:13:52.188Z,99330.83
2019-04-04T01:16:41.043Z,99331.55
2019-04-04T01:19:29.840Z,99329.66
2019-04-04T01:22:18.681Z,99319.73
2019-04-04T01:28:22.493Z,99301.66
2019-04-04T01:31:14.638Z,99299.45
2019-04-04T01:34:01.935Z,99308.04
2019-04-04T01:36:50.760Z,99313.63
2019-04-04T01:39:39.612Z,99303.56
2019-04-04T01:42:28.446Z,99287.25
2019-04-04T01:45:17.265Z,99280.72
2019-04-04T01:48:06.162Z,99275.00
2019-04-04T01:50:55.025Z,99284.81
2019-04-04T01:53:24.510Z,99279.66
2019-04-04T01:56:13.365Z,99281.41
2019-04-04T01:59:02.184Z,99281.73
2019-04-04T02:01:51.029Z,99274.42
2019-04-04T02:04:32.313Z,99286.88
2019-04-04T02:07:01.900Z,99277.57
2019-04-04T02:09:50.724Z,99275.28
2019-04-04T02:12:39.539Z,99271.42
2019-04-04T02:15:28.478Z,99274.03
2019-04-04T02:18:17.314Z,99247.36
2019-04-04T02:21:06.147Z,99238.28
2019-04-04T02:23:54.988Z,99235.13
2019-04-04T02:26:43.822Z,99235.02
2019-04-04T02:29:32.633Z,99236.61
2019-04-04T02:35:21.202Z,99222.38
2019-04-04T02:38:10.017Z,99231.42
2019-04-04T02:40:58.929Z,99237.82
2019-04-04T02:43:47.748Z,99222.33
2019-04-04T02:46:36.651Z,99226.97
2019-04-04T02:49:28.105Z,99234.27
2019-04-04T02:52:16.013Z,99236.92
2019-04-04T02:58:20.187Z,99252.15
2019-04-04T03:01:08.982Z,99252.62
2019-04-04T03:03:50.856Z,99255.27
2019-04-04T03:06:39.751Z,99244.58
2019-04-04T03:09:28.596Z,99228.36
2019-04-04T03:12:17.437Z,99225.39
2019-04-04T03:15:27.163Z,99217.23
2019-04-04T03:18:16.062Z,99221.92
2019-04-04T03:21:04.984Z,99239.56
2019-04-04T03:23:53.592Z,99233.98
2019-04-04T03:26:42.458Z,99241.68
2019-04-04T03:29:31.264Z,99248.62
2019-04-04T03:32:20.111Z,99234.02
2019-04-04T03:38:24.139Z,99262.86
2019-04-04T03:41:13.005Z,99270.09
2019-04-04T03:44:01.841Z,99255.53
2019-04-04T03:46:50.757Z,99248.66
2019-04-04T03:49:39.602Z,99239.20
2019-04-04T03:52:28.439Z,99239.63
2019-04-04T03:55:17.242Z,99237.52
2019-04-04T03:58:06.108Z,99232.33
2019-04-04T04:00:54.997Z,99229.79
2019-04-04T04:03:36.873Z,99232.80
2019-04-04T04:06:25.693Z,99234.48
2019-04-04T04:09:14.537Z,99227.61
2019-04-04T04:12:03.429Z,99223.71
2019-04-04T04:14:54.757Z,99220.38
2019-04-04T04:17:45.664Z,99213.04
2019-04-04T04:20:36.195Z,99205.73
2019-04-04T04:23:24.318Z,99194.11
2019-04-04T04:26:14.473Z,99197.52
2019-04-04T04:29:03.304Z,99201.41
2019-04-04T04:31:52.130Z,99202.70
2019-04-04T04:34:41.009Z,99204.28
2019-04-04T04:37:29.849Z,99206.43
2019-04-04T04:40:18.699Z,99202.50
2019-04-04T04:43:26.563Z,99206.29
2019-04-04T04:46:17.800Z,99205.36
2019-04-04T04:49:05.946Z,99206.92
2019-04-04T04:51:54.779Z,99209.96
2019-04-04T04:54:43.625Z,99214.26
2019-04-04T04:57:34.412Z,99216.91
2019-04-04T05:00:23.105Z,99212.27
2019-04-04T05:03:12.014Z,99215.73
2019-04-04T05:05:53.793Z,99218.02
2019-04-04T05:08:42.667Z,99216.34
2019-04-04T05:11:51.006Z,99230.91
2019-04-04T05:14:39.843Z,99231.80
2019-04-04T05:17:28.673Z,99232.66
2019-04-04T05:20:17.637Z,99239.13
2019-04-04T05:23:06.487Z,99237.06
2019-04-04T05:25:55.316Z,99243.47
2019-04-04T05:28:44.149Z,99243.07
2019-04-04T05:31:33.092Z,99244.03
2019-04-04T05:34:21.955Z,99251.03
2019-04-04T05:40:18.649Z,99237.69
2019-04-04T05:43:07.475Z,99229.06
2019-04-04T05:45:56.349Z,99220.93
2019-04-04T05:48:45.182Z,99224.39
2019-04-04T05:51:36.185Z,99230.92
2019-04-04T05:54:24.560Z,99232.16
2019-04-04T05:57:13.415Z,99237.78
2019-04-04T06:00:02.231Z,99239.72
2019-04-04T06:02:51.069Z,99232.42
2019-04-04T06:05:33.516Z,99234.13
2019-04-04T06:08:22.924Z,99243.15
2019-04-04T06:11:11.748Z,99247.09
2019-04-04T06:14:00.615Z,99259.16
2019-04-04T06:16:49.412Z,99264.30
2019-04-04T06:19:38.243Z,99260.88
2019-04-04T06:22:27.049Z,99255.02
2019-04-04T06:25:15.893Z,99261.01
2019-04-04T06:28:04.870Z,99260.70
2019-04-04T06:30:54.322Z,99266.34
2019-04-04T06:33:44.263Z,99266.95
2019-04-04T06:36:33.074Z,99266.95
2019-04-04T06:39:23.019Z,99264.39
2019-04-04T06:42:12.454Z,99263.10
2019-04-04T06:45:01.305Z,99274.27
2019-04-04T06:47:50.129Z,99276.36
2019-04-04T06:50:42.763Z,99270.36
2019-04-04T06:53:29.581Z,99275.48
2019-04-04T06:56:18.396Z,99271.25
2019-04-04T06:59:07.254Z,99273.42
2019-04-04T07:01:56.076Z,99269.52
2019-04-04T07:04:37.506Z,99277.73
2019-04-04T07:07:26.316Z,99269.17
2019-04-04T07:13:21.453Z,99274.39
2019-04-04T07:16:07.023Z,99275.69
2019-04-04T07:19:14.272Z,99270.89
2019-04-04T07:22:01.728Z,99266.97
2019-04-04T07:24:50.701Z,99276.73
2019-04-04T07:27:39.588Z,99276.41
2019-04-04T07:30:29.311Z,99275.97
2019-04-04T07:33:21.368Z,99283.69
2019-04-04T07:36:09.591Z,99281.89
2019-04-04T07:39:00.322Z,99280.20
2019-04-04T07:42:08.051Z,99281.11
2019-04-04T07:44:56.890Z,99289.75
2019-04-04T07:47:47.485Z,99287.64
2019-04-04T07:50:36.314Z,99290.08
2019-04-04T07:53:28.067Z,99284.02
2019-04-04T07:56:15.720Z,99287.08
2019-04-04T07:59:04.612Z,99295.74
2019-04-04T08:01:53.458Z,99283.30
2019-04-04T08:07:50.634Z,99292.48
2019-04-04T08:10:39.528Z,99303.27
2019-04-04T08:13:28.369Z,99298.07
2019-04-04T08:16:17.192Z,99305.00
2019-04-04T08:19:06.043Z,99303.72
2019-04-04T08:21:54.855Z,99300.69
2019-04-04T08:24:43.707Z,99295.06
2019-04-04T08:27:32.526Z,99283.87
2019-04-04T08:30:21.364Z,99285.17
2019-04-04T08:39:34.487Z,99302.83
2019-04-04T08:42:23.298Z,99296.35
2019-04-04T08:45:12.206Z,99289.89
2019-04-04T08:48:01.018Z,99289.89
2019-04-04T08:50:49.939Z,99296.81
2019-04-04T08:53:40.207Z,99297.66
2019-04-04T08:56:29.330Z,99301.55
2019-04-04T08:59:18.178Z,99303.25
2019-04-04T09:05:14.748Z,99304.55
2019-04-04T09:08:03.582Z,99306.23
2019-04-04T09:10:52.498Z,99314.30
2019-04-04T09:13:41.426Z,99317.00
2019-04-04T09:16:30.239Z,99318.27
2019-04-04T09:19:19.079Z,99311.77
2019-04-04T09:22:10.823Z,99313.19
2019-04-04T09:24:58.547Z,99310.13
2019-04-04T09:27:47.426Z,99318.27
2019-04-04T09:30:36.242Z,99313.50
2019-04-04T09:33:25.161Z,99310.02
2019-04-04T09:36:13.998Z,99307.00
2019-04-04T09:39:02.992Z,99307.84
2019-04-04T09:41:51.887Z,99310.41
2019-04-04T09:44:40.720Z,99308.41
2019-04-04T09:47:29.605Z,99320.02
2019-04-04T09:50:18.449Z,99324.74
2019-04-04T09:53:07.280Z,99323.64
2019-04-04T09:55:56.135Z,99326.71
2019-04-04T09:58:45.043Z,99337.98
2019-04-04T10:01:33.865Z,99327.28
2019-04-04T10:04:22.724Z,99323.45
2019-04-04T10:07:04.710Z,99323.95
2019-04-04T10:09:53.584Z,99319.56
2019-04-04T10:12:42.436Z,99329.35
2019-04-04T10:15:31.263Z,99331.79
2019-04-04T10:18:20.111Z,99328.03
2019-04-04T10:21:12.144Z,99324.41
2019-04-04T10:23:59.565Z,99332.45
2019-04-04T10:26:48.418Z,99336.28
2019-04-04T10:29:37.291Z,99328.34
2019-04-04T10:32:26.118Z,99323.23
2019-04-04T10:35:15.014Z,99310.25
2019-04-04T10:38:03.920Z,99302.58
2019-04-04T10:40:52.781Z,99301.91
2019-04-04T10:43:41.612Z,99307.47
2019-04-04T10:46:30.475Z,99302.78
2019-04-04T10:49:19.321Z,99303.69
2019-04-04T10:52:08.255Z,99314.50
2019-04-04T10:54:57.096Z,99314.02
2019-04-04T10:57:45.928Z,99316.59
2019-04-04T11:00:34.794Z,99323.41
2019-04-04T11:03:23.608Z,99332.91
2019-04-04T11:06:05.484Z,99339.34
2019-04-04T11:08:54.310Z,99350.59
2019-04-04T11:11:43.167Z,99354.84
2019-04-04T11:14:31.773Z,99360.41
2019-04-04T11:17:20.623Z,99363.91
2019-04-04T11:20:09.629Z,99358.38
2019-04-04T11:22:58.452Z,99357.12
2019-04-04T11:25:47.344Z,99371.77
2019-04-04T11:28:36.187Z,99367.05
2019-04-04T11:31:25.028Z,99358.88
2019-04-04T11:34:13.868Z,99356.70
2019-04-04T11:37:02.796Z,99357.10
2019-04-04T11:39:54.875Z,99368.33
2019-04-04T11:42:42.218Z,99360.50
2019-04-04T11:45:31.048Z,99357.02
2019-04-04T11:48:19.870Z,99365.62
2019-04-04T11:51:08.698Z,99381.22
2019-04-04T11:53:57.519Z,99374.73
2019-04-04T11:56:46.361Z,99377.34
2019-04-04T11:59:35.168Z,99382.17
2019-04-04T12:05:19.727Z,99396.38
2019-04-04T12:08:01.232Z,99414.11
2019-04-04T12:10:50.146Z,99404.62
2019-04-04T12:13:39.014Z,99402.52
2019-04-04T12:16:27.839Z,99399.02
2019-04-04T12:19:16.691Z,99397.28
2019-04-04T12:22:05.529Z,99407.67
2019-04-04T12:24:54.368Z,99402.89
2019-04-04T12:27:43.187Z,99402.41
2019-04-04T12:30:32.048Z,99391.23
2019-04-04T12:33:20.872Z,99382.20
2019-04-04T12:36:09.790Z,99379.58
2019-04-04T12:38:58.605Z,99376.15
2019-04-04T12:41:47.464Z,99373.14
2019-04-04T12:44:36.314Z,99381.75
2019-04-04T12:47:25.148Z,99367.92
2019-04-04T12:50:14.216Z,99365.78
2019-04-04T12:53:03.055Z,99373.10
2019-04-04T12:55:54.061Z,99389.95
2019-04-04T12:58:42.465Z,99393.46
2019-04-04T13:01:31.297Z,99384.80
2019-04-04T13:04:30.656Z,99377.94
2019-04-04T13:07:04.047Z,99398.63
2019-04-04T13:09:52.890Z,99396.48
2019-04-04T13:12:41.711Z,99402.07
2019-04-04T13:15:30.662Z,99419.27
2019-04-04T13:18:19.536Z,99439.93
2019-04-04T13:21:08.502Z,99452.80
2019-04-04T13:23:57.327Z,99445.17
2019-04-04T13:26:46.265Z,99440.88
2019-04-04T13:29:35.091Z,99444.77
2019-04-04T13:32:24.119Z,99456.41
2019-04-04T13:35:13.001Z,99460.34
2019-04-04T13:38:01.853Z,99458.64
2019-04-04T13:40:50.759Z,99469.88
2019-04-04T13:43:39.590Z,99460.80
2019-04-04T13:46:29.385Z,99462.52
2019-04-04T13:49:19.001Z,99468.57
2019-04-04T13:52:07.868Z,99465.12
2019-04-04T13:54:56.690Z,99457.34
2019-04-04T13:58:04.643Z,99451.74
2019-04-04T14:01:12.553Z,99457.30
2019-04-04T14:04:01.485Z,99473.75
2019-04-04T14:06:43.353Z,99491.89
2019-04-04T14:09:32.291Z,99500.52
2019-04-04T14:12:21.117Z,99506.93
2019-04-04T14:21:21.497Z,99506.94
2019-04-04T14:24:13.772Z,99499.16
2019-04-04T14:27:00.945Z,99490.96
2019-04-04T14:29:49.822Z,99505.63
2019-04-04T14:32:38.689Z,99512.50
2019-04-04T14:35:27.577Z,99514.62
2019-04-04T14:38:16.425Z,99502.05
2019-04-04T14:41:11.018Z,99506.69
2019-04-04T14:43:56.019Z,99496.66
2019-04-04T14:46:45.611Z,99497.53
2019-04-04T14:49:35.396Z,99508.20
2019-04-04T14:52:24.359Z,99512.51
2019-04-04T14:55:13.299Z,99527.52
2019-04-04T14:58:02.152Z,99538.69
2019-04-04T15:00:51.009Z,99533.98
2019-04-04T15:03:42.114Z,99528.33
2019-04-04T15:06:30.459Z,99512.44
2019-04-04T15:09:12.103Z,99503.80
2019-04-04T15:12:00.936Z,99511.17
2019-04-04T15:14:49.803Z,99519.81
2019-04-04T15:17:38.734Z,99522.67
2019-04-04T15:20:27.927Z,99542.48
2019-04-04T15:23:16.739Z,99550.38
2019-04-04T15:26:05.899Z,99548.23
2019-04-04T15:28:54.730Z,99549.63
2019-04-04T15:31:43.570Z,99548.27
2019-04-04T15:34:32.828Z,99548.22
2019-04-04T15:37:21.711Z,99554.76
2019-04-04T15:40:10.793Z,99549.99
2019-04-04T15:42:59.651Z,99561.92
2019-04-04T15:45:48.471Z,99554.94
2019-04-04T15:48:37.327Z,99567.05
2019-04-04T15:51:26.225Z,99572.25
2019-04-04T15:54:15.090Z,99577.11
2019-04-04T15:57:04.050Z,99589.91
2019-04-04T15:59:52.899Z,99595.51
2019-04-04T16:02:41.781Z,99586.06
2019-04-04T16:05:30.560Z,99577.02
2019-04-04T16:08:12.670Z,99591.57
2019-04-04T16:11:01.526Z,99593.10
2019-04-04T16:13:50.361Z,99582.65
2019-04-04T16:16:39.251Z,99574.77
2019-04-04T16:19:28.110Z,99569.20
2019-04-04T16:22:16.929Z,99582.25
2019-04-04T16:25:26.654Z,99589.05
2019-04-04T16:28:15.459Z,99567.91
2019-04-04T16:31:04.759Z,99553.36
2019-04-04T16:33:53.572Z,99553.64
2019-04-04T16:36:42.494Z,99558.37
2019-04-04T16:39:31.417Z,99573.11
2019-04-04T16:42:20.247Z,99581.60
2019-04-04T16:45:09.168Z,99581.20
2019-04-04T16:47:57.999Z,99585.05
2019-04-04T16:50:46.882Z,99598.86
2019-04-04T16:53:35.805Z,99615.05
2019-04-04T16:56:24.649Z,99616.30
2019-04-04T16:59:13.517Z,99614.25
2019-04-04T17:02:02.331Z,99611.74
2019-04-04T17:04:51.273Z,99613.36
2019-04-04T17:07:40.107Z,99623.23
2019-04-04T17:10:49.945Z,99629.22
2019-04-04T17:13:38.763Z,99631.77
2019-04-04T17:16:27.597Z,99626.67
2019-04-04T17:19:16.429Z,99627.14
2019-04-04T17:22:05.313Z,99633.13
2019-04-04T17:25:01.428Z,99644.79
2019-04-04T17:27:50.391Z,99637.69
2019-04-04T17:30:39.278Z,99634.34
2019-04-04T17:33:28.737Z,99652.25
2019-04-04T17:36:21.265Z,99661.77
2019-04-04T17:39:09.289Z,99669.37
2019-04-04T17:41:58.505Z,99677.90
2019-04-04T17:44:49.063Z,99668.85
2019-04-04T17:47:39.792Z,99662.91
2019-04-04T17:50:30.169Z,99658.21
2019-04-04T17:53:20.568Z,99647.84
2019-04-04T17:56:09.792Z,99635.75
2019-04-04T17:58:59.998Z,99646.39
2019-04-04T18:01:48.900Z,99646.86
2019-04-04T18:04:47.840Z,99661.42
2019-04-04T18:07:28.372Z,99674.23
2019-04-04T18:10:10.451Z,99684.92
2019-04-04T18:12:59.280Z,99682.77
2019-04-04T18:15:48.134Z,99690.13
2019-04-04T18:18:36.948Z,99703.42
2019-04-04T18:21:25.803Z,99707.25
2019-04-04T18:24:27.111Z,99719.72
2019-04-04T18:27:05.235Z,99731.81
2019-04-04T18:29:54.497Z,99720.69
2019-04-04T18:32:43.412Z,99713.36
2019-04-04T18:35:32.489Z,99714.09
2019-04-04T18:38:42.481Z,99712.23
2019-04-04T18:41:32.606Z,99715.19
2019-04-04T18:44:22.108Z,99719.77
2019-04-04T18:47:10.988Z,99709.22
2019-04-04T18:49:59.832Z,99712.82
2019-04-04T18:52:48.663Z,99727.16
2019-04-04T18:58:52.145Z,99729.06
2019-04-04T19:01:40.986Z,99731.86
2019-04-04T19:04:29.833Z,99728.61
2019-04-04T19:07:18.742Z,99730.94
2019-04-04T19:10:00.504Z,99719.23
2019-04-04T19:12:49.388Z,99722.23
2019-04-04T19:15:38.304Z,99733.63
2019-04-04T19:18:27.284Z,99736.70
2019-04-04T19:21:16.596Z,99732.33
2019-04-04T19:24:05.540Z,99728.48
2019-04-04T19:26:54.450Z,99732.81
2019-04-04T19:29:43.296Z,99740.47
2019-04-04T19:32:32.291Z,99744.78
2019-04-04T19:35:21.209Z,99743.48
2019-04-04T19:38:10.057Z,99739.64
2019-04-04T19:40:58.914Z,99748.70
2019-04-04T19:43:47.731Z,99758.16
2019-04-04T19:46:37.489Z,99761.14
2019-04-04T19:49:27.311Z,99751.72
2019-04-04T19:52:16.133Z,99746.26
2019-04-04T19:58:33.446Z,99750.43
2019-04-04T20:01:22.279Z,99753.42
2019-04-04T20:04:11.124Z,99750.41
2019-04-04T20:06:59.950Z,99752.98
2019-04-04T20:09:41.925Z,99753.16
2019-04-04T20:12:30.779Z,99760.42
2019-04-04T20:15:19.631Z,99767.11
2019-04-04T20:18:08.582Z,99766.17
2019-04-04T20:20:57.455Z,99760.14
2019-04-04T20:23:46.284Z,99767.79
2019-04-04T20:26:35.123Z,99764.23
2019-04-04T20:29:23.976Z,99773.69
2019-04-04T20:32:12.830Z,99782.77
2019-04-04T20:35:01.676Z,99790.07
2019-04-04T20:37:50.574Z,99777.34
2019-04-04T20:40:39.434Z,99771.38
2019-04-04T20:43:28.263Z,99767.40
2019-04-04T20:46:17.110Z,99775.19
2019-04-04T20:49:06.117Z,99774.02
2019-04-04T20:51:54.957Z,99776.19
2019-04-04T20:54:43.826Z,99774.89
2019-04-04T20:57:32.658Z,99773.97
2019-04-04T21:00:21.594Z,99778.63
2019-04-04T21:03:10.518Z,99785.20
2019-04-04T21:05:59.453Z,99794.27
2019-04-04T21:08:48.279Z,99805.53
2019-04-04T21:11:29.941Z,99805.94
2019-04-04T21:14:18.762Z,99809.30
2019-04-04T21:17:07.599Z,99821.31
2019-04-04T21:23:11.737Z,99810.16
2019-04-04T21:26:00.588Z,99810.45
2019-04-04T21:28:49.421Z,99809.16
2019-04-04T21:31:38.248Z,99800.66
2019-04-04T21:34:27.125Z,99802.74
2019-04-04T21:37:15.928Z,99813.47
2019-04-04T21:43:19.735Z,99813.47
2019-04-04T21:46:08.580Z,99807.03
2019-04-04T21:48:57.454Z,99806.59
2019-04-04T21:51:46.272Z,99813.83
2019-04-04T21:54:35.304Z,99822.05
2019-04-04T21:57:24.129Z,99821.87
2019-04-04T22:00:13.392Z,99825.19
2019-04-04T22:03:02.301Z,99824.30
2019-04-04T22:05:51.218Z,99819.02
2019-04-04T22:08:40.039Z,99815.39
2019-04-04T22:11:22.177Z,99819.13
2019-04-04T22:14:21.015Z,99821.59
2019-04-04T22:17:01.564Z,99825.82
2019-04-04T22:19:50.398Z,99823.58
2019-04-04T22:22:39.250Z,99823.50
2019-04-04T22:25:28.141Z,99818.72
2019-04-04T22:28:17.035Z,99813.11
2019-04-04T22:31:05.963Z,99824.27
2019-04-04T22:33:54.809Z,99843.49
2019-04-04T22:36:43.640Z,99863.13
2019-04-04T22:39:32.480Z,99862.72
2019-04-04T22:42:21.447Z,99854.55
2019-04-04T22:48:25.371Z,99845.47
2019-04-04T22:51:14.193Z,99844.08
2019-04-04T22:54:03.057Z,99839.56
2019-04-04T22:56:51.905Z,99841.09
2019-04-04T22:59:40.755Z,99847.36
2019-04-04T23:02:29.619Z,99840.80
2019-04-04T23:05:18.428Z,99841.83
2019-04-04T23:08:07.698Z,99841.85
2019-04-04T23:10:51.284Z,99839.86
2019-04-04T23:13:40.113Z,99841.61
2019-04-04T23:16:28.934Z,99848.05
2019-04-04T23:19:17.777Z,99842.53
2019-04-04T23:22:06.628Z,99841.01
2019-04-04T23:24:55.464Z,99851.64
2019-04-04T23:27:44.305Z,99853.41
2019-04-04T23:30:33.126Z,99855.68
2019-04-04T23:33:21.963Z,99859.34
2019-04-04T23:36:10.795Z,99858.66
2019-04-04T23:42:14.893Z,99861.08
2019-04-04T23:48:32.086Z,99866.38
2019-04-04T23:51:20.931Z,99868.71
2019-04-04T23:54:09.773Z,99880.37
2019-04-04T23:56:58.593Z,99883.12
2019-04-04T23:59:47.452Z,99881.83
